createdAt,value
2023-03-12T00:00:11.301Z,99032.72
2023-03-12T00:02:38.782Z,99024.84
2023-03-12T00:05:07.047Z,99036.66
2023-03-12T00:07:36.395Z,99041.69
2023-03-12T00:10:06.145Z,99050.38
2023-03-12T00:12:33.491Z,99056.13
2023-03-12T00:15:01.447Z,99055.63
2023-03-12T00:17:30.328Z,99072.31
2023-03-12T00:19:57.878Z,99065.97
2023-03-12T00:22:25.695Z,99076.72
2023-03-12T00:24:56.072Z,99080.81
2023-03-12T00:27:25.954Z,99089.56
2023-03-12T00:29:53.745Z,99095.41
2023-03-12T00:32:21.384Z,99098.38
2023-03-12T00:34:56.320Z,99101.66
2023-03-12T00:37:23.586Z,99098.44
2023-03-12T00:39:51.237Z,99105.75
2023-03-12T00:42:19.040Z,99101.16
2023-03-12T00:44:46.683Z,99112.81
2023-03-12T00:47:14.177Z,99116.00
2023-03-12T00:49:41.783Z,99119.34
2023-03-12T00:52:09.073Z,99122.69
2023-03-12T00:54:36.480Z,99126.09
2023-03-12T00:57:04.109Z,99120.25
2023-03-12T00:59:32.121Z,99126.50
2023-03-12T01:01:59.306Z,99131.88
2023-03-12T01:04:26.534Z,99129.81
2023-03-12T01:06:55.718Z,99127.03
2023-03-12T01:09:23.524Z,99121.31
2023-03-12T01:11:51.885Z,99129.06
2023-03-12T01:14:19.108Z,99127.34
2023-03-12T01:16:46.329Z,99131.41
2023-03-12T01:19:13.750Z,99129.50
2023-03-12T01:21:41.036Z,99137.97
2023-03-12T01:24:08.627Z,99136.25
2023-03-12T01:26:35.774Z,99144.72
2023-03-12T01:29:03.062Z,99143.66
2023-03-12T01:31:30.367Z,99147.25
2023-03-12T01:33:57.834Z,99147.38
2023-03-12T01:36:30.641Z,99145.53
2023-03-12T01:38:59.789Z,99144.63
2023-03-12T01:41:32.496Z,99140.91
2023-03-12T01:44:03.579Z,99149.69
2023-03-12T01:46:38.735Z,99152.03
2023-03-12T01:49:25.997Z,99147.38
2023-03-12T01:52:05.310Z,99154.16
2023-03-12T01:55:12.016Z,99150.59
2023-03-12T01:57:52.950Z,99155.88
2023-03-12T02:00:27.694Z,99147.66
2023-03-12T02:03:04.804Z,99157.41
2023-03-12T02:05:56.452Z,99159.88
2023-03-12T02:08:24.615Z,99163.56
2023-03-12T02:10:52.195Z,99165.56
2023-03-12T02:13:19.949Z,99161.78
2023-03-12T02:15:48.715Z,99163.16
2023-03-12T02:18:19.509Z,99155.00
2023-03-12T02:21:23.638Z,99159.75
2023-03-12T02:24:19.459Z,99162.94
2023-03-12T02:26:48.445Z,99175.84
2023-03-12T02:29:16.464Z,99185.53
2023-03-12T02:31:52.616Z,99188.22
2023-03-12T02:34:19.935Z,99187.88
2023-03-12T02:36:49.413Z,99190.25
2023-03-12T02:39:17.273Z,99190.81
2023-03-12T02:41:57.826Z,99203.78
2023-03-12T02:44:33.434Z,99214.44
2023-03-12T02:47:02.559Z,99222.28
2023-03-12T02:49:34.757Z,99222.97
2023-03-12T02:52:03.873Z,99229.44
2023-03-12T02:54:31.167Z,99235.31
2023-03-12T02:56:58.760Z,99234.06
2023-03-12T02:59:27.552Z,99235.47
2023-03-12T03:02:00.713Z,99236.78
2023-03-12T03:04:31.053Z,99246.53
2023-03-12T03:06:58.431Z,99257.22
2023-03-12T03:09:25.850Z,99254.50
2023-03-12T03:11:53.388Z,99260.88
2023-03-12T03:14:21.521Z,99264.56
2023-03-12T03:16:50.920Z,99266.47
2023-03-12T03:19:18.770Z,99280.19
2023-03-12T03:21:46.572Z,99277.75
2023-03-12T03:24:13.926Z,99278.53
2023-03-12T03:26:41.258Z,99291.53
2023-03-12T03:29:08.567Z,99294.00
2023-03-12T03:31:36.239Z,99299.94
2023-03-12T03:34:04.043Z,99305.31
2023-03-12T03:36:31.596Z,99312.50
2023-03-12T03:39:05.101Z,99312.09
2023-03-12T03:41:35.318Z,99309.97
2023-03-12T03:44:02.991Z,99314.47
2023-03-12T03:46:32.047Z,99325.00
2023-03-12T03:49:03.523Z,99329.16
2023-03-12T03:51:32.912Z,99327.38
2023-03-12T03:54:05.362Z,99333.97
2023-03-12T03:56:32.753Z,99340.00
2023-03-12T03:59:02.064Z,99346.91
2023-03-12T04:01:31.449Z,99349.41
2023-03-12T04:04:00.166Z,99345.88
2023-03-12T04:06:29.767Z,99354.88
2023-03-12T04:08:59.907Z,99357.97
2023-03-12T04:11:32.937Z,99368.78
2023-03-12T04:14:01.472Z,99371.56
2023-03-12T04:16:31.813Z,99373.84
2023-03-12T04:18:59.678Z,99379.13
2023-03-12T04:21:27.933Z,99379.78
2023-03-12T04:23:55.330Z,99387.50
2023-03-12T04:26:26.144Z,99392.88
2023-03-12T04:28:54.363Z,99397.84
2023-03-12T04:31:21.633Z,99409.78
2023-03-12T04:33:51.047Z,99409.78
2023-03-12T04:36:20.768Z,99409.63
2023-03-12T04:38:49.810Z,99414.09
2023-03-12T04:41:19.609Z,99419.72
2023-03-12T04:43:52.466Z,99426.63
2023-03-12T04:46:20.966Z,99435.25
2023-03-12T04:48:48.987Z,99438.59
2023-03-12T04:51:16.603Z,99444.28
2023-03-12T04:53:44.300Z,99446.91
2023-03-12T04:56:13.515Z,99450.63
2023-03-12T04:58:42.081Z,99455.06
2023-03-12T05:01:31.761Z,99462.81
2023-03-12T05:03:59.613Z,99461.09
2023-03-12T05:06:27.075Z,99453.38
2023-03-12T05:08:56.613Z,99454.97
2023-03-12T05:11:24.169Z,99455.97
2023-03-12T05:13:51.564Z,99456.41
2023-03-12T05:16:19.439Z,99467.47
2023-03-12T05:18:47.330Z,99471.69
2023-03-12T05:21:20.336Z,99465.34
2023-03-12T05:23:50.704Z,99474.94
2023-03-12T05:26:33.967Z,99483.56
2023-03-12T05:29:10.524Z,99477.72
2023-03-12T05:32:07.553Z,99486.78
2023-03-12T05:34:58.292Z,99491.09
2023-03-12T05:37:28.937Z,99498.81
2023-03-12T05:39:56.615Z,99503.75
2023-03-12T05:42:25.366Z,99506.28
2023-03-12T05:44:52.869Z,99499.09
2023-03-12T05:47:27.802Z,99514.25
2023-03-12T05:49:55.091Z,99520.22
2023-03-12T05:52:22.489Z,99522.84
2023-03-12T05:54:52.941Z,99524.56
2023-03-12T05:57:23.571Z,99522.06
2023-03-12T05:59:55.214Z,99529.84
2023-03-12T06:02:23.442Z,99528.75
2023-03-12T06:04:50.712Z,99528.56
2023-03-12T06:07:18.501Z,99522.31
2023-03-12T06:09:46.666Z,99536.91
2023-03-12T06:12:17.915Z,99537.81
2023-03-12T06:14:45.730Z,99539.78
2023-03-12T06:17:13.103Z,99528.75
2023-03-12T06:19:40.325Z,99535.94
2023-03-12T06:22:08.034Z,99535.03
2023-03-12T06:24:50.273Z,99532.84
2023-03-12T06:27:21.809Z,99525.31
2023-03-12T06:29:49.006Z,99526.38
2023-03-12T06:32:18.256Z,99527.59
2023-03-12T06:34:45.818Z,99542.16
2023-03-12T06:37:13.025Z,99544.13
2023-03-12T06:39:46.402Z,99563.69
2023-03-12T06:42:22.473Z,99561.34
2023-03-12T06:44:53.839Z,99566.88
2023-03-12T06:47:21.246Z,99560.28
2023-03-12T06:49:48.396Z,99574.88
2023-03-12T06:52:15.525Z,99582.47
2023-03-12T06:54:42.769Z,99590.81
2023-03-12T06:57:09.949Z,99579.81
2023-03-12T06:59:37.161Z,99585.59
2023-03-12T07:02:04.556Z,99583.13
2023-03-12T07:04:31.777Z,99588.50
2023-03-12T07:06:58.944Z,99584.41
2023-03-12T07:09:26.165Z,99590.97
2023-03-12T07:11:53.307Z,99588.75
2023-03-12T07:14:21.380Z,99589.72
2023-03-12T07:16:48.701Z,99596.56
2023-03-12T07:19:15.852Z,99595.09
2023-03-12T07:21:42.987Z,99600.88
2023-03-12T07:24:10.157Z,99601.09
2023-03-12T07:26:37.505Z,99606.13
2023-03-12T07:29:05.133Z,99610.16
2023-03-12T07:31:32.396Z,99608.53
2023-03-12T07:33:59.666Z,99619.78
2023-03-12T07:36:27.060Z,99620.03
2023-03-12T07:38:54.311Z,99628.22
2023-03-12T07:41:21.577Z,99630.44
2023-03-12T07:43:49.413Z,99633.66
2023-03-12T07:46:17.056Z,99639.41
2023-03-12T07:48:44.487Z,99638.19
2023-03-12T07:51:11.978Z,99648.94
2023-03-12T07:53:39.361Z,99656.69
2023-03-12T07:56:07.462Z,99666.25
2023-03-12T07:58:36.434Z,99669.25
2023-03-12T08:01:04.009Z,99679.38
2023-03-12T08:03:31.251Z,99682.66
2023-03-12T08:06:02.698Z,99686.47
2023-03-12T08:08:32.140Z,99682.94
2023-03-12T08:11:00.608Z,99688.31
2023-03-12T08:13:28.045Z,99690.53
2023-03-12T08:15:55.449Z,99684.97
2023-03-12T08:18:24.667Z,99693.19
2023-03-12T08:20:55.184Z,99685.25
2023-03-12T08:23:23.268Z,99701.38
2023-03-12T08:25:51.623Z,99706.94
2023-03-12T08:28:21.106Z,99710.34
2023-03-12T08:30:52.425Z,99719.69
2023-03-12T08:33:20.889Z,99716.22
2023-03-12T08:35:49.216Z,99715.03
2023-03-12T08:38:16.516Z,99724.66
2023-03-12T08:40:44.644Z,99724.22
2023-03-12T08:43:12.047Z,99726.78
2023-03-12T08:45:39.930Z,99723.19
2023-03-12T08:48:07.985Z,99723.91
2023-03-12T08:50:35.397Z,99730.69
2023-03-12T08:53:03.904Z,99730.19
2023-03-12T08:55:32.847Z,99735.28
2023-03-12T08:58:00.101Z,99727.03
2023-03-12T09:00:28.062Z,99741.66
2023-03-12T09:02:58.570Z,99732.59
2023-03-12T09:05:30.625Z,99738.22
2023-03-12T09:07:58.101Z,99730.44
2023-03-12T09:10:30.293Z,99731.78
2023-03-12T09:12:57.947Z,99731.13
2023-03-12T09:15:25.269Z,99730.59
2023-03-12T09:17:53.970Z,99731.19
2023-03-12T09:20:22.367Z,99738.72
2023-03-12T09:22:49.443Z,99742.91
2023-03-12T09:25:19.288Z,99738.88
2023-03-12T09:27:47.826Z,99736.69
2023-03-12T09:30:21.767Z,99737.06
2023-03-12T09:32:49.152Z,99740.47
2023-03-12T09:35:16.931Z,99745.13
2023-03-12T09:37:48.416Z,99745.41
2023-03-12T09:40:24.566Z,99751.03
2023-03-12T09:43:10.338Z,99750.09
2023-03-12T09:45:45.866Z,99745.00
2023-03-12T09:48:36.422Z,99742.84
2023-03-12T09:51:31.676Z,99749.06
2023-03-12T09:54:04.335Z,99750.13
2023-03-12T09:56:33.200Z,99755.22
2023-03-12T09:59:01.878Z,99761.66
2023-03-12T10:01:57.945Z,99752.75
2023-03-12T10:04:58.565Z,99742.91
2023-03-12T10:07:58.263Z,99740.28
2023-03-12T10:10:46.450Z,99737.25
2023-03-12T10:13:50.249Z,99742.44
2023-03-12T10:16:58.601Z,99747.09
2023-03-12T10:19:46.759Z,99753.47
2023-03-12T10:22:56.768Z,99742.34
2023-03-12T10:25:46.313Z,99743.63
2023-03-12T10:28:37.877Z,99753.53
2023-03-12T10:31:27.476Z,99754.91
2023-03-12T10:33:59.756Z,99742.03
2023-03-12T10:36:40.587Z,99745.59
2023-03-12T10:39:20.335Z,99745.00
2023-03-12T10:41:48.820Z,99751.28
2023-03-12T10:44:24.558Z,99759.28
2023-03-12T10:47:05.738Z,99755.75
2023-03-12T10:49:37.178Z,99767.34
2023-03-12T10:52:18.997Z,99758.34
2023-03-12T10:54:51.331Z,99747.22
2023-03-12T10:57:21.048Z,99753.88
2023-03-12T10:59:50.928Z,99746.13
2023-03-12T11:02:45.931Z,99749.25
2023-03-12T11:05:37.350Z,99732.91
2023-03-12T11:08:21.765Z,99743.72
2023-03-12T11:10:49.149Z,99750.03
2023-03-12T11:13:35.401Z,99744.06
2023-03-12T11:16:17.810Z,99753.16
2023-03-12T11:19:04.366Z,99754.59
2023-03-12T11:21:37.022Z,99759.47
2023-03-12T11:24:16.043Z,99751.31
2023-03-12T11:26:59.916Z,99750.75
2023-03-12T11:29:39.853Z,99748.75
2023-03-12T11:32:29.404Z,99766.47
2023-03-12T11:34:56.701Z,99774.50
2023-03-12T11:38:06.319Z,99765.50
2023-03-12T11:41:23.373Z,99746.25
2023-03-12T11:44:09.111Z,99743.38
2023-03-12T11:47:07.789Z,99740.72
2023-03-12T11:50:00.101Z,99746.59
2023-03-12T11:53:12.964Z,99748.56
2023-03-12T11:56:16.197Z,99731.38
2023-03-12T11:59:24.403Z,99725.66
2023-03-12T12:02:44.570Z,99736.19
2023-03-12T12:05:51.086Z,99724.78
2023-03-12T12:09:30.245Z,99733.69
2023-03-12T12:12:44.685Z,99734.06
2023-03-12T12:15:40.684Z,99733.94
2023-03-12T12:18:35.989Z,99735.53
2023-03-12T12:21:33.209Z,99732.56
2023-03-12T12:25:08.020Z,99733.34
2023-03-12T12:28:30.753Z,99732.47
2023-03-12T12:31:28.103Z,99731.44
2023-03-12T12:34:41.332Z,99729.09
2023-03-12T12:38:07.151Z,99735.63
2023-03-12T12:40:48.244Z,99729.34
2023-03-12T12:43:41.787Z,99726.09
2023-03-12T12:46:36.057Z,99715.94
2023-03-12T12:49:15.270Z,99711.06
2023-03-12T12:51:51.348Z,99714.59
2023-03-12T12:54:57.637Z,99718.09
2023-03-12T12:57:55.412Z,99708.50
2023-03-12T13:00:54.861Z,99709.75
2023-03-12T13:03:25.146Z,99707.91
2023-03-12T13:06:02.093Z,99701.88
2023-03-12T13:08:44.081Z,99698.06
2023-03-12T13:11:20.299Z,99706.63
2023-03-12T13:14:16.079Z,99702.69
2023-03-12T13:16:48.207Z,99709.41
2023-03-12T13:19:15.761Z,99710.53
2023-03-12T13:22:48.871Z,99708.06
2023-03-12T13:25:53.281Z,99697.25
2023-03-12T13:28:26.590Z,99695.88
2023-03-12T13:30:54.587Z,99698.63
2023-03-12T13:33:44.981Z,99682.88
2023-03-12T13:36:23.331Z,99684.72
2023-03-12T13:39:08.770Z,99689.63
2023-03-12T13:41:44.999Z,99684.59
2023-03-12T13:44:26.825Z,99697.84
2023-03-12T13:47:27.374Z,99688.59
2023-03-12T13:50:14.559Z,99687.84
2023-03-12T13:52:50.557Z,99689.13
2023-03-12T13:55:37.097Z,99687.59
2023-03-12T13:58:23.288Z,99694.47
2023-03-12T14:01:04.951Z,99693.91
2023-03-12T14:03:42.479Z,99695.22
2023-03-12T14:06:14.889Z,99693.13
2023-03-12T14:09:40.607Z,99688.69
2023-03-12T14:13:12.802Z,99684.56
2023-03-12T14:16:07.831Z,99680.66
2023-03-12T14:18:37.408Z,99686.13
2023-03-12T14:21:14.224Z,99684.16
2023-03-12T14:24:20.853Z,99700.19
2023-03-12T14:26:48.948Z,99708.22
2023-03-12T14:29:39.087Z,99704.63
2023-03-12T14:32:21.924Z,99697.16
2023-03-12T14:35:14.185Z,99706.91
2023-03-12T14:38:00.257Z,99697.66
2023-03-12T14:41:00.541Z,99695.13
2023-03-12T14:43:35.385Z,99702.34
2023-03-12T14:46:13.462Z,99693.28
2023-03-12T14:48:40.854Z,99695.63
2023-03-12T14:51:08.332Z,99699.34
2023-03-12T14:53:38.206Z,99701.84
2023-03-12T14:56:30.595Z,99701.47
2023-03-12T14:59:21.069Z,99703.25
2023-03-12T15:01:48.745Z,99720.41
2023-03-12T15:04:23.704Z,99707.84
2023-03-12T15:07:03.431Z,99712.13
2023-03-12T15:09:35.986Z,99710.38
2023-03-12T15:12:29.563Z,99705.88
2023-03-12T15:15:08.980Z,99703.47
2023-03-12T15:17:36.645Z,99704.00
2023-03-12T15:20:09.835Z,99708.81
2023-03-12T15:22:37.754Z,99711.03
2023-03-12T15:25:31.391Z,99702.06
2023-03-12T15:28:08.793Z,99703.75
2023-03-12T15:30:39.179Z,99702.53
2023-03-12T15:33:15.554Z,99709.72
2023-03-12T15:36:06.127Z,99712.69
2023-03-12T15:38:38.186Z,99707.03
2023-03-12T15:41:12.214Z,99694.34
2023-03-12T15:43:43.778Z,99695.59
2023-03-12T15:46:12.422Z,99689.69
2023-03-12T15:48:41.438Z,99689.31
2023-03-12T15:51:32.239Z,99690.25
2023-03-12T15:54:25.675Z,99684.03
2023-03-12T15:56:53.340Z,99689.38
2023-03-12T15:59:26.986Z,99679.47
2023-03-12T16:01:56.823Z,99691.88
2023-03-12T16:04:24.588Z,99687.50
2023-03-12T16:06:53.508Z,99686.53
2023-03-12T16:09:27.072Z,99682.16
2023-03-12T16:11:56.995Z,99688.00
2023-03-12T16:14:34.985Z,99680.44
2023-03-12T16:17:02.242Z,99701.25
2023-03-12T16:19:33.620Z,99699.97
2023-03-12T16:22:00.799Z,99707.16
2023-03-12T16:24:27.978Z,99707.94
2023-03-12T16:26:58.916Z,99708.97
2023-03-12T16:29:38.491Z,99707.84
2023-03-12T16:32:17.368Z,99706.25
2023-03-12T16:34:45.945Z,99715.06
2023-03-12T16:37:13.839Z,99722.19
2023-03-12T16:39:41.170Z,99728.72
2023-03-12T16:42:18.676Z,99726.41
2023-03-12T16:44:46.757Z,99736.03
2023-03-12T16:47:15.038Z,99748.19
2023-03-12T16:49:43.925Z,99750.03
2023-03-12T16:52:24.116Z,99751.63
2023-03-12T16:54:52.516Z,99752.53
2023-03-12T16:57:45.485Z,99760.50
2023-03-12T17:00:19.804Z,99761.19
2023-03-12T17:02:48.173Z,99760.59
2023-03-12T17:05:16.278Z,99765.28
2023-03-12T17:07:43.326Z,99763.34
2023-03-12T17:10:12.942Z,99776.81
2023-03-12T17:12:41.522Z,99779.63
2023-03-12T17:15:28.236Z,99774.75
2023-03-12T17:17:55.762Z,99789.00
2023-03-12T17:20:24.609Z,99790.03
2023-03-12T17:22:53.055Z,99799.84
2023-03-12T17:25:28.868Z,99810.59
2023-03-12T17:27:57.242Z,99819.41
2023-03-12T17:30:26.566Z,99818.81
2023-03-12T17:32:56.886Z,99830.56
2023-03-12T17:35:24.078Z,99834.34
2023-03-12T17:37:51.307Z,99837.75
2023-03-12T17:40:18.674Z,99831.94
2023-03-12T17:42:45.926Z,99830.06
2023-03-12T17:45:13.232Z,99836.06
2023-03-12T17:47:40.374Z,99850.53
2023-03-12T17:50:08.843Z,99864.09
2023-03-12T17:52:36.282Z,99864.69
2023-03-12T17:55:04.885Z,99870.66
2023-03-12T17:57:32.439Z,99875.63
2023-03-12T17:59:59.945Z,99877.00
2023-03-12T18:02:27.109Z,99873.50
2023-03-12T18:04:54.431Z,99867.69
2023-03-12T18:07:21.812Z,99871.38
2023-03-12T18:09:49.091Z,99875.28
2023-03-12T18:12:16.230Z,99882.78
2023-03-12T18:14:43.393Z,99879.75
2023-03-12T18:17:10.719Z,99877.28
2023-03-12T18:19:37.987Z,99870.31
2023-03-12T18:22:07.203Z,99890.69
2023-03-12T18:24:34.969Z,99896.94
2023-03-12T18:27:02.184Z,99909.47
2023-03-12T18:29:29.500Z,99906.41
2023-03-12T18:31:56.669Z,99909.50
2023-03-12T18:34:23.845Z,99920.78
2023-03-12T18:36:51.075Z,99928.38
2023-03-12T18:39:18.306Z,99928.28
2023-03-12T18:41:45.445Z,99936.22
2023-03-12T18:44:13.412Z,99949.34
2023-03-12T18:46:40.570Z,99960.81
2023-03-12T18:49:12.125Z,99964.78
2023-03-12T18:51:39.333Z,99963.66
2023-03-12T18:54:06.739Z,99968.13
2023-03-12T18:56:34.060Z,99970.16
2023-03-12T18:59:01.293Z,99970.75
2023-03-12T19:01:28.515Z,99970.75
2023-03-12T19:03:55.867Z,99969.97
2023-03-12T19:06:23.080Z,99980.19
2023-03-12T19:08:50.291Z,99984.16
2023-03-12T19:11:17.965Z,99981.84
2023-03-12T19:13:45.182Z,99987.81
2023-03-12T19:16:14.871Z,99986.63
2023-03-12T19:18:42.080Z,99987.44
2023-03-12T19:21:09.705Z,99978.97
2023-03-12T19:23:36.916Z,99985.88
2023-03-12T19:26:05.130Z,99987.53
2023-03-12T19:28:32.613Z,99979.25
2023-03-12T19:31:02.611Z,99971.88
2023-03-12T19:33:30.232Z,99970.97
2023-03-12T19:35:58.239Z,99977.78
2023-03-12T19:38:26.497Z,99969.03
2023-03-12T19:40:57.103Z,99980.19
2023-03-12T19:43:25.924Z,99980.03
2023-03-12T19:45:55.511Z,99995.69
2023-03-12T19:48:25.318Z,100001.81
2023-03-12T19:50:53.792Z,100003.31
2023-03-12T19:53:22.006Z,99997.00
2023-03-12T19:55:49.718Z,99994.66
2023-03-12T19:58:17.680Z,100007.03
2023-03-12T20:00:45.097Z,100010.91
2023-03-12T20:03:12.308Z,100015.53
2023-03-12T20:05:44.754Z,100021.63
2023-03-12T20:08:12.190Z,100030.16
2023-03-12T20:10:39.819Z,100025.00
2023-03-12T20:13:08.816Z,100032.81
2023-03-12T20:15:37.402Z,100033.06
2023-03-12T20:18:04.678Z,100040.59
2023-03-12T20:20:31.836Z,100045.56
2023-03-12T20:22:58.966Z,100048.34
2023-03-12T20:25:26.133Z,100050.50
2023-03-12T20:27:53.286Z,100055.22
2023-03-12T20:30:20.448Z,100070.03
2023-03-12T20:32:47.759Z,100075.41
2023-03-12T20:35:15.105Z,100071.94
2023-03-12T20:37:42.218Z,100068.41
2023-03-12T20:40:10.560Z,100065.47
2023-03-12T20:42:37.616Z,100077.75
2023-03-12T20:45:05.560Z,100075.63
2023-03-12T20:47:34.583Z,100079.66
2023-03-12T20:50:02.081Z,100083.50
2023-03-12T20:52:29.265Z,100091.69
2023-03-12T20:54:56.422Z,100110.78
2023-03-12T20:57:23.574Z,100108.09
2023-03-12T20:59:50.689Z,100113.88
2023-03-12T21:02:18.570Z,100121.97
2023-03-12T21:04:45.862Z,100130.22
2023-03-12T21:07:13.208Z,100133.75
2023-03-12T21:09:40.351Z,100140.19
2023-03-12T21:12:07.522Z,100153.94
2023-03-12T21:14:34.735Z,100147.94
2023-03-12T21:17:02.014Z,100143.16
2023-03-12T21:19:30.351Z,100150.75
2023-03-12T21:21:57.514Z,100151.50
2023-03-12T21:24:24.668Z,100152.06
2023-03-12T21:26:51.799Z,100150.41
2023-03-12T21:29:18.975Z,100157.63
2023-03-12T21:31:46.144Z,100161.19
2023-03-12T21:34:13.269Z,100176.63
2023-03-12T21:36:40.441Z,100172.47
2023-03-12T21:39:07.553Z,100174.75
2023-03-12T21:41:34.755Z,100174.41
2023-03-12T21:44:02.703Z,100176.22
2023-03-12T21:46:30.531Z,100174.44
2023-03-12T21:48:58.707Z,100173.69
2023-03-12T21:51:26.961Z,100173.88
2023-03-12T21:53:56.574Z,100162.00
2023-03-12T21:56:28.214Z,100173.72
2023-03-12T21:58:57.337Z,100179.56
2023-03-12T22:01:25.306Z,100186.78
2023-03-12T22:03:52.717Z,100185.63
2023-03-12T22:06:20.392Z,100179.13
2023-03-12T22:08:48.235Z,100191.03
2023-03-12T22:11:16.474Z,100193.91
2023-03-12T22:13:43.838Z,100184.81
2023-03-12T22:16:13.303Z,100185.00
2023-03-12T22:18:46.327Z,100179.50
2023-03-12T22:21:18.747Z,100178.50
2023-03-12T22:23:51.589Z,100179.69
2023-03-12T22:26:22.075Z,100182.75
2023-03-12T22:28:57.526Z,100179.22
2023-03-12T22:31:27.712Z,100183.44
2023-03-12T22:33:56.607Z,100189.38
2023-03-12T22:36:24.213Z,100180.50
2023-03-12T22:38:51.593Z,100182.84
2023-03-12T22:41:28.981Z,100185.28
2023-03-12T22:44:02.049Z,100192.56
2023-03-12T22:46:29.896Z,100182.91
2023-03-12T22:49:01.173Z,100177.50
2023-03-12T22:51:31.117Z,100180.75
2023-03-12T22:53:58.394Z,100181.56
2023-03-12T22:56:26.045Z,100184.88
2023-03-12T22:58:55.090Z,100183.00
2023-03-12T23:01:23.335Z,100179.75
2023-03-12T23:03:51.329Z,100177.28
2023-03-12T23:06:25.203Z,100172.06
2023-03-12T23:08:54.585Z,100168.25
2023-03-12T23:11:25.315Z,100167.97
2023-03-12T23:13:53.795Z,100170.94
2023-03-12T23:16:24.072Z,100175.44
2023-03-12T23:18:52.234Z,100177.44
2023-03-12T23:21:22.895Z,100168.44
2023-03-12T23:23:50.742Z,100169.66
2023-03-12T23:26:27.308Z,100170.19
2023-03-12T23:28:57.597Z,100171.19
2023-03-12T23:31:27.522Z,100173.63
2023-03-12T23:33:56.671Z,100167.13
2023-03-12T23:36:24.621Z,100162.63
2023-03-12T23:38:52.033Z,100154.47
2023-03-12T23:41:26.717Z,100165.72
2023-03-12T23:43:53.928Z,100164.13
2023-03-12T23:46:21.248Z,100170.88
2023-03-12T23:48:49.332Z,100168.78
2023-03-12T23:51:27.876Z,100162.41
2023-03-12T23:54:05.207Z,100163.19
2023-03-12T23:56:37.131Z,100158.78
2023-03-12T23:59:07.891Z,100148.34
